createdAt,value
2022-10-04T00:01:06.359Z,12.13
2022-10-04T00:03:38.568Z,12.25
2022-10-04T00:06:07.880Z,12.32
2022-10-04T00:08:43.264Z,12.40
2022-10-04T00:11:17.661Z,12.37
2022-10-04T00:13:49.302Z,12.17
2022-10-04T00:16:23.608Z,12.26
2022-10-04T00:19:02.006Z,12.12
2022-10-04T00:22:00.113Z,12.04
2022-10-04T00:24:30.802Z,12.14
2022-10-04T00:27:12.666Z,12.33
2022-10-04T00:29:42.202Z,12.13
2022-10-04T00:32:30.570Z,12.45
2022-10-04T00:34:58.981Z,12.35
2022-10-04T00:37:27.397Z,12.39
2022-10-04T00:40:05.140Z,12.03
2022-10-04T00:42:45.149Z,12.33
2022-10-04T00:45:18.626Z,12.46
2022-10-04T00:48:21.262Z,12.34
2022-10-04T00:50:51.397Z,12.37
2022-10-04T00:53:32.275Z,12.31
2022-10-04T00:56:04.487Z,12.26
2022-10-04T00:58:35.973Z,12.17
2022-10-04T01:01:04.938Z,12.28
2022-10-04T01:03:35.171Z,12.19
2022-10-04T01:06:05.523Z,12.39
2022-10-04T01:08:36.193Z,12.50
2022-10-04T01:11:08.403Z,12.24
2022-10-04T01:13:39.860Z,12.40
2022-10-04T01:16:12.830Z,12.32
2022-10-04T01:18:40.641Z,12.29
2022-10-04T01:21:09.849Z,12.47
2022-10-04T01:23:43.506Z,12.28
2022-10-04T01:26:37.795Z,12.18
2022-10-04T01:29:09.168Z,12.49
2022-10-04T01:31:39.594Z,12.47
2022-10-04T01:34:08.158Z,12.58
2022-10-04T01:36:36.929Z,12.64
2022-10-04T01:39:06.638Z,12.42
2022-10-04T01:41:46.093Z,12.54
2022-10-04T01:44:20.123Z,12.64
2022-10-04T01:46:48.556Z,12.80
2022-10-04T01:49:20.121Z,12.72
2022-10-04T01:51:54.360Z,12.70
2022-10-04T01:54:31.901Z,12.81
2022-10-04T01:57:01.663Z,12.98
2022-10-04T01:59:32.525Z,12.93
2022-10-04T02:02:03.050Z,12.82
2022-10-04T02:04:33.411Z,12.64
2022-10-04T02:07:02.969Z,12.92
2022-10-04T02:09:34.094Z,13.06
2022-10-04T02:12:02.563Z,13.03
2022-10-04T02:14:36.569Z,12.75
2022-10-04T02:17:07.986Z,12.83
2022-10-04T02:19:37.477Z,13.07
2022-10-04T02:22:06.504Z,12.81
2022-10-04T02:24:38.201Z,12.69
2022-10-04T02:27:06.546Z,12.83
2022-10-04T02:29:34.668Z,13.07
2022-10-04T02:32:18.774Z,13.00
2022-10-04T02:34:47.864Z,13.05
2022-10-04T02:37:15.788Z,12.90
2022-10-04T02:39:47.035Z,12.88
2022-10-04T02:42:20.087Z,12.96
2022-10-04T02:44:52.660Z,13.03
2022-10-04T02:47:22.889Z,13.06
2022-10-04T02:49:52.617Z,12.97
2022-10-04T02:52:24.512Z,13.10
2022-10-04T02:54:57.786Z,13.15
2022-10-04T02:57:25.808Z,13.16
2022-10-04T03:00:05.192Z,13.07
2022-10-04T03:02:33.044Z,13.25
2022-10-04T03:05:05.178Z,13.17
2022-10-04T03:07:33.805Z,13.19
2022-10-04T03:10:04.408Z,13.02
2022-10-04T03:12:32.196Z,13.03
2022-10-04T03:15:00.149Z,13.15
2022-10-04T03:17:28.265Z,13.22
2022-10-04T03:19:57.150Z,13.19
2022-10-04T03:22:24.931Z,13.02
2022-10-04T03:24:54.399Z,13.16
2022-10-04T03:27:26.611Z,13.18
2022-10-04T03:29:58.884Z,13.18
2022-10-04T03:32:30.448Z,13.37
2022-10-04T03:34:59.851Z,13.25
2022-10-04T03:37:28.611Z,13.17
2022-10-04T03:39:57.122Z,13.17
2022-10-04T03:42:27.919Z,12.94
2022-10-04T03:44:57.346Z,13.02
2022-10-04T03:47:27.597Z,13.18
2022-10-04T03:49:55.987Z,13.28
2022-10-04T03:52:25.832Z,13.38
2022-10-04T03:54:55.269Z,13.20
2022-10-04T03:57:23.689Z,13.27
2022-10-04T03:59:52.910Z,13.32
2022-10-04T04:02:27.230Z,13.16
2022-10-04T04:05:01.611Z,13.11
2022-10-04T04:07:33.805Z,13.09
2022-10-04T04:10:07.004Z,13.01
2022-10-04T04:12:39.704Z,12.95
2022-10-04T04:15:11.619Z,12.82
2022-10-04T04:17:41.910Z,12.88
2022-10-04T04:20:22.863Z,12.85
2022-10-04T04:22:59.100Z,12.64
2022-10-04T04:25:28.790Z,12.69
2022-10-04T04:28:02.733Z,12.83
2022-10-04T04:30:32.888Z,12.77
2022-10-04T04:33:04.886Z,12.56
2022-10-04T04:35:33.855Z,12.71
2022-10-04T04:38:07.574Z,12.56
2022-10-04T04:40:37.721Z,12.43
2022-10-04T04:43:05.957Z,12.57
2022-10-04T04:45:35.850Z,12.62
2022-10-04T04:48:04.719Z,12.71
2022-10-04T04:50:35.633Z,12.72
2022-10-04T04:53:06.615Z,12.72
2022-10-04T04:55:50.301Z,12.77
2022-10-04T04:58:26.254Z,12.61
2022-10-04T05:00:58.793Z,12.72
2022-10-04T05:03:27.025Z,12.64
2022-10-04T05:05:57.330Z,12.59
2022-10-04T05:08:27.724Z,12.64
2022-10-04T05:11:05.874Z,12.62
2022-10-04T05:13:40.649Z,12.70
2022-10-04T05:16:13.207Z,12.77
2022-10-04T05:18:41.059Z,12.76
2022-10-04T05:21:13.124Z,12.72
2022-10-04T05:23:40.891Z,12.74
2022-10-04T05:26:12.155Z,12.62
2022-10-04T05:28:40.302Z,12.72
2022-10-04T05:31:23.867Z,12.78
2022-10-04T05:33:53.286Z,12.68
2022-10-04T05:36:49.560Z,12.68
2022-10-04T05:39:24.290Z,12.69
2022-10-04T05:41:58.158Z,12.79
2022-10-04T05:44:28.305Z,12.86
2022-10-04T05:46:58.280Z,12.83
2022-10-04T05:49:27.466Z,12.99
2022-10-04T05:51:56.756Z,12.93
2022-10-04T05:54:26.135Z,12.93
2022-10-04T05:57:16.801Z,13.26
2022-10-04T06:00:09.909Z,13.32
2022-10-04T06:03:12.533Z,13.33
2022-10-04T06:05:49.950Z,13.36
2022-10-04T06:08:25.118Z,13.32
2022-10-04T06:11:18.759Z,13.38
2022-10-04T06:14:16.618Z,13.37
2022-10-04T06:16:57.715Z,13.23
2022-10-04T06:19:41.870Z,13.37
2022-10-04T06:22:16.945Z,13.58
2022-10-04T06:24:47.300Z,13.48
2022-10-04T06:27:19.161Z,13.44
2022-10-04T06:29:49.785Z,13.49
2022-10-04T06:32:41.071Z,13.85
2022-10-04T06:35:50.414Z,13.92
2022-10-04T06:38:34.413Z,14.14
2022-10-04T06:41:14.937Z,14.24
2022-10-04T06:43:52.335Z,14.20
2022-10-04T06:46:27.458Z,14.10
2022-10-04T06:49:32.847Z,14.03
2022-10-04T06:52:24.228Z,14.19
2022-10-04T06:55:11.364Z,14.40
2022-10-04T06:58:00.164Z,14.67
2022-10-04T07:00:28.820Z,14.64
2022-10-04T07:03:01.048Z,14.75
2022-10-04T07:05:33.002Z,14.77
2022-10-04T07:08:07.585Z,15.01
2022-10-04T07:10:49.531Z,15.26
2022-10-04T07:13:33.220Z,15.53
2022-10-04T07:16:04.781Z,15.43
2022-10-04T07:18:36.596Z,15.18
2022-10-04T07:21:08.396Z,15.13
2022-10-04T07:23:39.762Z,14.54
2022-10-04T07:26:18.154Z,14.52
2022-10-04T07:29:04.092Z,14.35
2022-10-04T07:31:36.197Z,14.41
2022-10-04T07:34:11.876Z,14.62
2022-10-04T07:36:44.876Z,15.21
2022-10-04T07:39:15.402Z,14.85
2022-10-04T07:41:49.972Z,14.72
2022-10-04T07:44:24.106Z,15.02
2022-10-04T07:46:54.818Z,15.35
2022-10-04T07:49:23.582Z,15.47
2022-10-04T07:52:11.085Z,15.53
2022-10-04T07:54:42.502Z,15.74
2022-10-04T07:57:20.173Z,15.79
2022-10-04T07:59:55.542Z,15.32
2022-10-04T08:02:31.417Z,15.34
2022-10-04T08:05:07.770Z,15.50
2022-10-04T08:07:46.358Z,15.33
2022-10-04T08:10:22.564Z,15.41
2022-10-04T08:12:54.611Z,15.29
2022-10-04T08:15:37.288Z,15.45
2022-10-04T08:18:21.929Z,15.19
2022-10-04T08:20:51.762Z,15.45
2022-10-04T08:23:35.524Z,15.39
2022-10-04T08:26:23.325Z,15.56
2022-10-04T08:29:17.777Z,15.95
2022-10-04T08:32:05.069Z,16.06
2022-10-04T08:34:45.234Z,15.83
2022-10-04T08:37:18.937Z,16.14
2022-10-04T08:39:59.115Z,15.87
2022-10-04T08:42:42.646Z,15.98
2022-10-04T08:45:32.419Z,16.23
2022-10-04T08:48:24.666Z,15.78
2022-10-04T08:51:33.870Z,16.26
2022-10-04T08:54:30.048Z,16.36
2022-10-04T08:57:08.609Z,16.24
2022-10-04T09:00:13.751Z,16.08
2022-10-04T09:03:24.765Z,16.65
2022-10-04T09:06:02.265Z,16.60
2022-10-04T09:09:24.029Z,16.86
2022-10-04T09:12:20.085Z,17.07
2022-10-04T09:15:26.112Z,16.67
2022-10-04T09:17:57.114Z,17.07
2022-10-04T09:20:38.825Z,17.16
2022-10-04T09:23:16.550Z,16.65
2022-10-04T09:25:59.051Z,17.16
2022-10-04T09:29:03.898Z,17.34
2022-10-04T09:32:25.269Z,17.17
2022-10-04T09:35:13.944Z,17.28
2022-10-04T09:37:52.001Z,17.30
2022-10-04T09:40:50.948Z,16.90
2022-10-04T09:43:51.376Z,16.73
2022-10-04T09:46:31.932Z,17.13
2022-10-04T09:49:06.856Z,17.46
2022-10-04T09:52:02.364Z,17.60
2022-10-04T09:55:14.644Z,18.33
2022-10-04T09:57:54.303Z,18.43
2022-10-04T10:00:24.332Z,18.34
2022-10-04T10:03:18.995Z,18.44
2022-10-04T10:06:08.424Z,18.42
2022-10-04T10:08:44.189Z,18.12
2022-10-04T10:11:33.008Z,18.45
2022-10-04T10:14:37.517Z,18.02
2022-10-04T10:17:14.613Z,18.38
2022-10-04T10:20:03.179Z,18.51
2022-10-04T10:22:54.775Z,18.65
2022-10-04T10:25:30.642Z,18.98
2022-10-04T10:28:25.168Z,19.11
2022-10-04T10:31:08.565Z,19.24
2022-10-04T10:33:46.890Z,19.81
2022-10-04T10:36:26.079Z,20.09
2022-10-04T10:39:11.929Z,20.02
2022-10-04T10:41:52.900Z,19.85
2022-10-04T10:44:46.326Z,19.67
2022-10-04T10:47:31.564Z,19.99
2022-10-04T10:50:08.911Z,21.02
2022-10-04T10:53:12.006Z,21.75
2022-10-04T10:56:19.149Z,21.21
2022-10-04T10:59:07.708Z,21.57
2022-10-04T11:02:05.893Z,21.91
2022-10-04T11:04:44.619Z,21.60
2022-10-04T11:07:41.635Z,21.34
2022-10-04T11:10:51.813Z,21.80
2022-10-04T11:13:48.135Z,21.66
2022-10-04T11:16:40.515Z,22.59
2022-10-04T11:19:47.544Z,23.47
2022-10-04T11:22:34.774Z,24.32
2022-10-04T11:25:43.741Z,22.34
2022-10-04T11:28:17.028Z,20.94
2022-10-04T11:31:09.932Z,21.54
2022-10-04T11:33:59.199Z,21.35
2022-10-04T11:36:36.769Z,21.21
2022-10-04T11:39:25.938Z,21.84
2022-10-04T11:41:57.342Z,21.91
2022-10-04T11:44:55.235Z,20.92
2022-10-04T11:47:34.080Z,20.60
2022-10-04T11:50:16.537Z,21.02
2022-10-04T11:52:56.666Z,21.35
2022-10-04T11:55:39.331Z,20.95
2022-10-04T11:58:15.706Z,20.49
2022-10-04T12:00:57.938Z,20.08
2022-10-04T12:03:49.764Z,20.38
2022-10-04T12:06:34.923Z,20.48
2022-10-04T12:09:05.999Z,21.07
2022-10-04T12:12:14.396Z,20.91
2022-10-04T12:15:14.419Z,20.88
2022-10-04T12:17:59.005Z,20.75
2022-10-04T12:20:53.656Z,21.11
2022-10-04T12:23:49.084Z,20.86
2022-10-04T12:26:38.961Z,21.38
2022-10-04T12:29:38.527Z,21.68
2022-10-04T12:32:11.941Z,21.89
2022-10-04T12:34:48.969Z,22.21
2022-10-04T12:37:23.978Z,22.78
2022-10-04T12:40:09.677Z,22.60
2022-10-04T12:42:41.489Z,22.16
2022-10-04T12:45:29.743Z,21.91
2022-10-04T12:48:16.693Z,21.46
2022-10-04T12:50:54.163Z,21.39
2022-10-04T12:53:32.095Z,21.10
2022-10-04T12:56:21.836Z,21.09
2022-10-04T12:59:10.890Z,21.13
2022-10-04T13:01:47.336Z,21.58
2022-10-04T13:04:22.677Z,21.21
2022-10-04T13:06:59.425Z,20.76
2022-10-04T13:09:34.272Z,20.76
2022-10-04T13:12:11.951Z,20.85
2022-10-04T13:14:56.237Z,20.81
2022-10-04T13:17:36.404Z,20.85
2022-10-04T13:20:32.091Z,21.08
2022-10-04T13:23:03.510Z,21.26
2022-10-04T13:25:40.909Z,21.75
2022-10-04T13:28:23.238Z,23.24
2022-10-04T13:30:56.804Z,25.50
2022-10-04T13:33:31.472Z,24.16
2022-10-04T13:36:05.908Z,23.53
2022-10-04T13:38:49.022Z,22.59
2022-10-04T13:41:24.703Z,22.84
2022-10-04T13:44:15.248Z,22.31
2022-10-04T13:46:54.790Z,23.08
2022-10-04T13:49:31.137Z,23.05
2022-10-04T13:52:42.563Z,23.09
2022-10-04T13:55:42.007Z,22.69
2022-10-04T13:58:20.764Z,22.82
2022-10-04T14:01:02.060Z,23.55
2022-10-04T14:03:42.398Z,23.58
2022-10-04T14:06:37.071Z,23.44
2022-10-04T14:09:23.592Z,22.35
2022-10-04T14:12:19.237Z,23.68
2022-10-04T14:15:25.886Z,23.49
2022-10-04T14:18:32.423Z,26.24
2022-10-04T14:21:23.661Z,28.64
2022-10-04T14:24:41.756Z,29.73
2022-10-04T14:27:59.671Z,25.59
2022-10-04T14:30:33.605Z,25.79
2022-10-04T14:33:33.219Z,24.17
2022-10-04T14:36:29.633Z,22.10
2022-10-04T14:39:20.191Z,21.81
2022-10-04T14:42:12.238Z,21.76
2022-10-04T14:44:55.296Z,22.17
2022-10-04T14:47:36.476Z,22.19
2022-10-04T14:50:19.036Z,21.47
2022-10-04T14:52:56.881Z,21.59
2022-10-04T14:55:45.891Z,21.40
2022-10-04T14:58:17.737Z,21.24
2022-10-04T15:01:06.586Z,21.22
2022-10-04T15:03:40.593Z,21.21
2022-10-04T15:06:13.644Z,20.85
2022-10-04T15:09:22.694Z,21.08
2022-10-04T15:12:25.426Z,21.50
2022-10-04T15:14:45.217Z,21.73
2022-10-04T15:17:26.840Z,21.70
2022-10-04T15:20:03.567Z,21.84
2022-10-04T15:22:33.671Z,22.01
2022-10-04T15:25:01.478Z,21.77
2022-10-04T15:27:50.698Z,21.21
2022-10-04T15:30:22.411Z,21.28
2022-10-04T15:32:57.533Z,21.12
2022-10-04T15:35:32.767Z,21.15
2022-10-04T15:38:02.674Z,21.29
2022-10-04T15:40:37.826Z,21.02
2022-10-04T15:43:19.301Z,21.18
2022-10-04T15:46:03.573Z,21.01
2022-10-04T15:48:59.607Z,20.82
2022-10-04T15:51:51.435Z,21.03
2022-10-04T15:54:52.217Z,20.49
2022-10-04T15:57:31.229Z,20.72
2022-10-04T16:00:05.988Z,20.84
2022-10-04T16:02:48.686Z,20.82
2022-10-04T16:05:23.662Z,20.70
2022-10-04T16:08:26.895Z,20.70
2022-10-04T16:11:13.942Z,20.93
2022-10-04T16:14:10.882Z,20.91
2022-10-04T16:16:59.448Z,20.98
2022-10-04T16:19:38.668Z,20.64
2022-10-04T16:22:14.803Z,20.47
2022-10-04T16:24:46.848Z,20.28
2022-10-04T16:27:46.071Z,20.42
2022-10-04T16:30:27.060Z,20.05
2022-10-04T16:33:14.107Z,19.76
2022-10-04T16:35:44.722Z,19.98
2022-10-04T16:38:25.512Z,19.91
2022-10-04T16:41:12.693Z,19.81
2022-10-04T16:43:50.414Z,19.77
2022-10-04T16:46:27.042Z,19.71
2022-10-04T16:48:58.858Z,19.49
2022-10-04T16:51:46.580Z,19.52
2022-10-04T16:54:34.975Z,19.42
2022-10-04T16:57:19.690Z,19.28
2022-10-04T17:00:00.435Z,18.85
2022-10-04T17:02:55.427Z,18.55
2022-10-04T17:05:49.396Z,18.46
2022-10-04T17:08:23.545Z,18.01
2022-10-04T17:11:16.084Z,17.78
2022-10-04T17:13:56.388Z,17.37
2022-10-04T17:16:31.476Z,17.76
2022-10-04T17:19:19.600Z,17.81
2022-10-04T17:21:58.665Z,17.16
2022-10-04T17:24:32.450Z,17.46
2022-10-04T17:27:13.512Z,17.48
2022-10-04T17:29:56.142Z,17.54
2022-10-04T17:32:28.957Z,17.48
2022-10-04T17:35:09.934Z,17.38
2022-10-04T17:37:47.080Z,17.31
2022-10-04T17:40:28.573Z,17.18
2022-10-04T17:43:00.502Z,17.01
2022-10-04T17:46:00.760Z,16.87
2022-10-04T17:48:47.510Z,16.86
2022-10-04T17:51:51.279Z,16.68
2022-10-04T17:54:41.885Z,16.59
2022-10-04T17:57:15.887Z,16.47
2022-10-04T17:59:45.964Z,16.37
2022-10-04T18:02:20.165Z,16.30
2022-10-04T18:04:50.726Z,16.27
2022-10-04T18:07:20.472Z,16.20
2022-10-04T18:09:51.782Z,16.20
2022-10-04T18:12:27.521Z,15.98
2022-10-04T18:15:01.696Z,16.05
2022-10-04T18:17:34.102Z,16.04
2022-10-04T18:20:16.566Z,15.92
2022-10-04T18:22:48.098Z,15.86
2022-10-04T18:25:20.558Z,15.70
2022-10-04T18:27:54.206Z,15.67
2022-10-04T18:30:22.584Z,15.64
2022-10-04T18:32:52.440Z,15.60
2022-10-04T18:35:26.639Z,15.48
2022-10-04T18:37:56.399Z,15.37
2022-10-04T18:40:28.455Z,15.45
2022-10-04T18:42:58.062Z,15.40
2022-10-04T18:45:28.284Z,15.27
2022-10-04T18:47:57.684Z,15.19
2022-10-04T18:50:33.170Z,14.91
2022-10-04T18:53:15.768Z,14.91
2022-10-04T18:55:52.822Z,15.01
2022-10-04T18:58:46.430Z,15.22
2022-10-04T19:01:44.869Z,15.36
2022-10-04T19:04:18.351Z,15.60
2022-10-04T19:06:48.281Z,15.63
2022-10-04T19:09:21.411Z,15.71
2022-10-04T19:11:53.182Z,15.71
2022-10-04T19:14:27.435Z,15.76
2022-10-04T19:16:59.220Z,15.72
2022-10-04T19:19:41.702Z,15.72
2022-10-04T19:22:19.707Z,15.73
2022-10-04T19:25:12.137Z,15.69
2022-10-04T19:27:45.232Z,15.66
2022-10-04T19:30:16.562Z,15.74
2022-10-04T19:32:55.491Z,15.78
2022-10-04T19:35:31.229Z,15.73
2022-10-04T19:38:05.487Z,15.84
2022-10-04T19:40:38.950Z,15.72
2022-10-04T19:43:10.405Z,15.70
2022-10-04T19:45:43.429Z,15.64
2022-10-04T19:48:23.377Z,15.54
2022-10-04T19:50:55.449Z,15.53
2022-10-04T19:53:25.624Z,15.45
2022-10-04T19:55:56.625Z,15.37
2022-10-04T19:58:37.770Z,15.43
2022-10-04T20:01:11.615Z,15.43
2022-10-04T20:03:39.542Z,15.35
2022-10-04T20:06:07.896Z,15.40
2022-10-04T20:08:56.735Z,15.41
2022-10-04T20:11:30.332Z,15.33
2022-10-04T20:14:40.011Z,15.35
2022-10-04T20:17:09.174Z,15.31
2022-10-04T20:19:41.428Z,15.24
2022-10-04T20:22:30.137Z,15.35
2022-10-04T20:24:59.236Z,15.35
2022-10-04T20:28:02.125Z,15.42
2022-10-04T20:30:52.350Z,15.34
2022-10-04T20:33:46.653Z,15.37
2022-10-04T20:36:50.862Z,15.34
2022-10-04T20:40:01.595Z,15.34
2022-10-04T20:42:34.672Z,15.16
2022-10-04T20:45:06.064Z,15.27
2022-10-04T20:47:43.002Z,15.18
2022-10-04T20:50:26.558Z,15.21
2022-10-04T20:52:57.072Z,15.21
2022-10-04T20:55:28.095Z,15.16
2022-10-04T20:57:57.203Z,15.16
2022-10-04T21:00:26.965Z,15.22
2022-10-04T21:03:13.859Z,15.24
2022-10-04T21:05:43.061Z,15.17
2022-10-04T21:08:25.482Z,15.13
2022-10-04T21:11:20.395Z,15.22
2022-10-04T21:13:59.116Z,15.03
2022-10-04T21:16:58.609Z,15.06
2022-10-04T21:19:45.068Z,15.12
2022-10-04T21:22:35.413Z,15.09
2022-10-04T21:25:05.073Z,15.15
2022-10-04T21:27:33.971Z,15.11
2022-10-04T21:30:02.479Z,15.13
2022-10-04T21:32:34.934Z,14.99
2022-10-04T21:35:03.594Z,15.15
2022-10-04T21:37:31.394Z,14.88
2022-10-04T21:40:00.648Z,15.11
2022-10-04T21:42:28.578Z,15.06
2022-10-04T21:44:56.362Z,14.95
2022-10-04T21:47:24.136Z,14.97
2022-10-04T21:49:52.454Z,15.11
2022-10-04T21:52:20.330Z,15.38
2022-10-04T21:54:48.179Z,15.48
2022-10-04T21:57:17.286Z,15.26
2022-10-04T21:59:45.057Z,15.19
2022-10-04T22:02:12.855Z,15.32
2022-10-04T22:04:41.852Z,14.99
2022-10-04T22:07:10.562Z,15.28
2022-10-04T22:09:38.432Z,15.06
2022-10-04T22:12:06.281Z,15.09
2022-10-04T22:14:35.631Z,14.99
2022-10-04T22:17:03.967Z,15.03
2022-10-04T22:19:31.855Z,14.92
2022-10-04T22:21:59.605Z,15.04
2022-10-04T22:24:27.342Z,14.81
2022-10-04T22:26:55.141Z,14.78
2022-10-04T22:29:23.253Z,14.94
2022-10-04T22:31:53.165Z,15.01
2022-10-04T22:34:22.800Z,14.63
2022-10-04T22:36:53.077Z,14.91
2022-10-04T22:39:21.322Z,14.81
2022-10-04T22:41:50.078Z,14.56
2022-10-04T22:44:20.888Z,14.66
2022-10-04T22:46:52.212Z,14.68
2022-10-04T22:49:23.893Z,14.62
2022-10-04T22:51:52.831Z,14.56
2022-10-04T22:54:22.283Z,14.61
2022-10-04T22:56:50.535Z,14.78
2022-10-04T22:59:20.462Z,14.81
2022-10-04T23:01:48.814Z,14.63
2022-10-04T23:04:22.296Z,14.63
2022-10-04T23:06:50.809Z,14.98
2022-10-04T23:09:18.993Z,15.14
2022-10-04T23:11:46.905Z,15.11
2022-10-04T23:14:14.659Z,14.70
2022-10-04T23:16:42.949Z,14.87
2022-10-04T23:19:12.833Z,15.04
2022-10-04T23:21:44.775Z,14.93
2022-10-04T23:24:16.506Z,15.08
2022-10-04T23:26:47.924Z,14.96
2022-10-04T23:29:19.295Z,14.89
2022-10-04T23:31:49.553Z,15.11
2022-10-04T23:34:20.182Z,14.75
2022-10-04T23:36:49.753Z,15.01
2022-10-04T23:39:24.065Z,14.88
2022-10-04T23:41:52.426Z,14.91
2022-10-04T23:44:20.158Z,14.94
2022-10-04T23:46:48.316Z,14.95
2022-10-04T23:49:16.911Z,14.86
2022-10-04T23:51:45.554Z,14.55
2022-10-04T23:54:17.096Z,14.84
2022-10-04T23:56:45.732Z,14.76
2022-10-04T23:59:17.291Z,15.04
